createdAt,value
2018-03-19T00:00:06.442Z,10.67
2018-03-19T00:02:34.044Z,10.27
2018-03-19T00:05:02.479Z,11.43
2018-03-19T00:07:30.069Z,10.50
2018-03-19T00:09:57.682Z,13.47
2018-03-19T00:12:25.544Z,14.13
2018-03-19T00:14:53.177Z,10.33
2018-03-19T00:17:21.572Z,13.17
2018-03-19T00:19:49.232Z,13.23
2018-03-19T00:22:16.847Z,11.30
2018-03-19T00:24:44.492Z,13.83
2018-03-19T00:27:12.438Z,10.40
2018-03-19T00:29:40.058Z,11.30
2018-03-19T00:32:08.458Z,13.53
2018-03-19T00:34:36.065Z,10.77
2018-03-19T00:37:03.671Z,10.33
2018-03-19T00:39:31.319Z,12.40
2018-03-19T00:41:59.696Z,11.23
2018-03-19T00:44:28.880Z,13.23
2018-03-19T00:46:56.502Z,13.07
2018-03-19T00:49:24.110Z,11.60
2018-03-19T00:51:52.519Z,9.50
2018-03-19T00:54:20.119Z,11.60
2018-03-19T00:56:47.716Z,13.07
2018-03-19T00:59:16.133Z,12.07
2018-03-19T01:01:43.732Z,11.23
2018-03-19T01:04:11.350Z,15.27
2018-03-19T01:06:38.972Z,14.60
2018-03-19T01:09:07.384Z,11.17
2018-03-19T01:11:34.989Z,12.10
2018-03-19T01:14:02.612Z,11.33
2018-03-19T01:16:30.241Z,14.13
2018-03-19T01:18:58.006Z,10.63
2018-03-19T01:21:25.593Z,11.43
2018-03-19T01:23:53.194Z,12.50
2018-03-19T01:26:20.813Z,12.63
2018-03-19T01:28:48.410Z,14.30
2018-03-19T01:31:16.038Z,11.80
2018-03-19T01:33:43.642Z,13.37
2018-03-19T01:36:12.043Z,13.10
2018-03-19T01:38:39.658Z,12.57
2018-03-19T01:41:07.301Z,13.47
2018-03-19T01:43:34.920Z,12.77
2018-03-19T01:46:03.282Z,13.97
2018-03-19T01:48:31.666Z,11.53
2018-03-19T01:51:00.042Z,16.07
2018-03-19T01:53:28.417Z,12.93
2018-03-19T01:55:56.820Z,13.57
2018-03-19T01:58:24.414Z,14.77
2018-03-19T02:00:52.047Z,13.30
2018-03-19T02:03:19.747Z,17.77
2018-03-19T02:05:47.390Z,14.77
2018-03-19T02:08:15.019Z,13.93
2018-03-19T02:10:42.630Z,13.37
2018-03-19T02:13:10.253Z,15.17
2018-03-19T02:15:37.946Z,13.10
2018-03-19T02:18:05.557Z,14.07
2018-03-19T02:20:33.178Z,12.10
2018-03-19T02:23:00.823Z,17.97
2018-03-19T02:25:28.599Z,15.03
2018-03-19T02:27:56.212Z,12.03
2018-03-19T02:30:23.975Z,12.53
2018-03-19T02:32:51.613Z,13.87
2018-03-19T02:35:19.977Z,15.40
2018-03-19T02:37:48.416Z,13.00
2018-03-19T02:40:16.088Z,13.53
2018-03-19T02:42:43.734Z,11.87
2018-03-19T02:45:11.332Z,12.43
2018-03-19T02:47:39.554Z,13.37
2018-03-19T02:50:07.204Z,13.77
2018-03-19T02:52:34.897Z,11.13
2018-03-19T02:55:03.255Z,13.90
2018-03-19T02:57:30.880Z,11.67
2018-03-19T02:59:59.291Z,13.50
2018-03-19T03:02:26.882Z,12.07
2018-03-19T03:04:54.508Z,13.27
2018-03-19T03:07:22.133Z,13.63
2018-03-19T03:09:50.498Z,12.37
2018-03-19T03:12:18.166Z,12.13
2018-03-19T03:14:45.785Z,12.93
2018-03-19T03:17:13.386Z,15.03
2018-03-19T03:19:41.026Z,12.50
2018-03-19T03:22:08.610Z,13.10
2018-03-19T03:24:36.197Z,13.87
2018-03-19T03:27:03.811Z,12.93
2018-03-19T03:29:31.450Z,12.93
2018-03-19T03:31:59.045Z,13.03
2018-03-19T03:34:26.694Z,12.67
2018-03-19T03:36:54.354Z,12.20
2018-03-19T03:39:22.710Z,10.13
2018-03-19T03:41:50.329Z,12.50
2018-03-19T03:44:17.974Z,13.53
2018-03-19T03:46:46.945Z,13.07
2018-03-19T03:49:14.583Z,11.70
2018-03-19T03:51:42.222Z,11.23
2018-03-19T03:54:09.831Z,14.83
2018-03-19T03:56:38.191Z,11.47
2018-03-19T03:59:05.814Z,11.90
2018-03-19T04:01:33.429Z,12.63
2018-03-19T04:04:01.023Z,11.13
2018-03-19T04:06:28.665Z,10.43
2018-03-19T04:08:57.081Z,13.03
2018-03-19T04:11:24.678Z,12.87
2018-03-19T04:13:52.286Z,10.90
2018-03-19T04:16:19.918Z,12.60
2018-03-19T04:18:48.877Z,11.20
2018-03-19T04:21:16.542Z,10.27
2018-03-19T04:23:44.768Z,12.57
2018-03-19T04:26:13.037Z,15.43
2018-03-19T04:28:42.042Z,10.37
2018-03-19T04:31:09.699Z,12.67
2018-03-19T04:33:37.320Z,10.23
2018-03-19T04:36:04.923Z,12.53
2018-03-19T04:38:32.567Z,10.57
2018-03-19T04:41:01.858Z,12.40
2018-03-19T04:43:29.454Z,14.90
2018-03-19T04:45:57.086Z,11.20
2018-03-19T04:48:26.079Z,13.87
2018-03-19T04:50:54.451Z,10.30
2018-03-19T04:53:22.855Z,12.70
2018-03-19T04:55:50.493Z,11.93
2018-03-19T04:58:18.879Z,14.03
2018-03-19T05:00:46.513Z,14.23
2018-03-19T05:03:14.939Z,13.23
2018-03-19T05:05:42.639Z,10.17
2018-03-19T05:08:10.251Z,10.60
2018-03-19T05:10:38.759Z,10.40
2018-03-19T05:13:06.628Z,9.50
2018-03-19T05:15:34.291Z,14.87
2018-03-19T05:18:02.150Z,13.20
2018-03-19T05:20:29.816Z,11.77
2018-03-19T05:22:57.454Z,11.60
2018-03-19T05:25:25.047Z,14.53
2018-03-19T05:27:52.670Z,16.27
2018-03-19T05:30:20.325Z,11.30
2018-03-19T05:32:47.927Z,11.83
2018-03-19T05:35:15.556Z,14.80
2018-03-19T05:37:43.144Z,11.73
2018-03-19T05:40:11.230Z,20.90
2018-03-19T05:42:38.892Z,19.07
2018-03-19T05:45:06.505Z,15.53
2018-03-19T05:47:34.095Z,20.73
2018-03-19T05:50:01.754Z,15.47
2018-03-19T05:52:29.368Z,18.40
2018-03-19T05:54:56.970Z,30.30
2018-03-19T05:57:24.595Z,11.50
2018-03-19T05:59:52.221Z,15.27
2018-03-19T06:02:19.817Z,15.03
2018-03-19T06:04:47.422Z,13.77
2018-03-19T06:07:15.807Z,13.23
2018-03-19T06:09:43.412Z,15.73
2018-03-19T06:12:11.077Z,16.37
2018-03-19T06:14:38.678Z,13.77
2018-03-19T06:17:06.290Z,16.97
2018-03-19T06:19:33.903Z,15.30
2018-03-19T06:22:01.523Z,17.77
2018-03-19T06:24:29.170Z,15.53
2018-03-19T06:26:56.766Z,17.73
2018-03-19T06:29:24.356Z,15.30
2018-03-19T06:31:53.633Z,15.60
2018-03-19T06:34:21.220Z,13.97
2018-03-19T06:36:48.840Z,13.33
2018-03-19T06:39:16.486Z,15.90
2018-03-19T06:41:44.164Z,18.37
2018-03-19T06:44:11.801Z,14.93
2018-03-19T06:46:39.401Z,17.57
2018-03-19T06:49:07.074Z,13.93
2018-03-19T06:51:34.687Z,18.03
2018-03-19T06:54:02.303Z,13.80
2018-03-19T06:56:30.722Z,16.67
2018-03-19T06:58:58.320Z,13.30
2018-03-19T07:01:25.911Z,11.27
2018-03-19T07:03:54.332Z,14.07
2018-03-19T07:06:21.988Z,12.77
2018-03-19T07:08:49.634Z,17.03
2018-03-19T07:11:17.244Z,13.27
2018-03-19T07:13:44.854Z,10.43
2018-03-19T07:16:12.497Z,16.33
2018-03-19T07:18:40.861Z,14.47
2018-03-19T07:21:09.221Z,13.10
2018-03-19T07:23:36.853Z,12.10
2018-03-19T07:26:04.483Z,14.13
2018-03-19T07:28:32.103Z,10.33
2018-03-19T07:30:59.701Z,11.33
2018-03-19T07:33:27.346Z,17.87
2018-03-19T07:35:55.714Z,12.30
2018-03-19T07:38:24.455Z,21.10
2018-03-19T07:40:52.125Z,12.90
2018-03-19T07:43:19.751Z,13.07
2018-03-19T07:45:47.394Z,12.13
2018-03-19T07:48:15.782Z,13.83
2018-03-19T07:50:43.434Z,12.13
2018-03-19T07:53:11.840Z,10.53
2018-03-19T07:55:39.466Z,16.73
2018-03-19T07:58:07.836Z,14.43
2018-03-19T08:00:37.246Z,10.60
2018-03-19T08:03:05.625Z,14.30
2018-03-19T08:05:34.007Z,12.17
2018-03-19T08:08:02.406Z,11.13
2018-03-19T08:10:30.019Z,9.80
2018-03-19T08:12:57.622Z,10.33
2018-03-19T08:15:25.267Z,11.93
2018-03-19T08:17:53.738Z,11.73
2018-03-19T08:20:22.772Z,14.80
2018-03-19T08:22:50.417Z,10.60
2018-03-19T08:25:18.036Z,15.13
2018-03-19T08:27:45.678Z,11.27
2018-03-19T08:30:13.281Z,12.17
2018-03-19T08:32:41.634Z,15.03
2018-03-19T08:35:09.854Z,10.97
2018-03-19T08:37:37.477Z,8.60
2018-03-19T08:40:05.871Z,9.80
2018-03-19T08:42:33.472Z,10.67
2018-03-19T08:45:01.083Z,10.53
2018-03-19T08:47:29.472Z,10.43
2018-03-19T08:49:57.070Z,7.77
2018-03-19T08:52:24.734Z,8.97
2018-03-19T08:54:52.388Z,11.47
2018-03-19T08:57:20.030Z,8.90
2018-03-19T08:59:47.669Z,8.67
2018-03-19T09:02:16.059Z,8.83
2018-03-19T09:04:43.670Z,9.43
2018-03-19T09:07:11.316Z,8.13
2018-03-19T09:09:38.943Z,8.73
2018-03-19T09:12:06.555Z,8.23
2018-03-19T09:14:35.730Z,9.20
2018-03-19T09:17:03.346Z,7.83
2018-03-19T09:19:31.722Z,7.03
2018-03-19T09:22:00.547Z,7.53
2018-03-19T09:24:28.166Z,10.10
2018-03-19T09:26:56.524Z,7.97
2018-03-19T09:29:24.154Z,8.57
2018-03-19T09:31:51.736Z,10.37
2018-03-19T09:34:19.352Z,11.57
2018-03-19T09:36:46.983Z,9.53
2018-03-19T09:39:15.342Z,9.10
2018-03-19T09:41:42.994Z,8.40
2018-03-19T09:44:10.598Z,8.77
2018-03-19T09:46:38.826Z,8.27
2018-03-19T09:49:07.241Z,5.87
2018-03-19T09:51:36.442Z,8.03
2018-03-19T09:54:04.366Z,10.83
2018-03-19T09:56:32.007Z,10.27
2018-03-19T09:58:59.635Z,13.23
2018-03-19T10:01:27.253Z,9.60
2018-03-19T10:03:54.960Z,11.67
2018-03-19T10:06:22.569Z,8.73
2018-03-19T10:08:50.272Z,7.97
2018-03-19T10:11:18.672Z,8.63
2018-03-19T10:13:48.068Z,10.80
2018-03-19T10:16:19.349Z,12.70
2018-03-19T10:18:47.063Z,5.60
2018-03-19T10:21:15.456Z,7.33
2018-03-19T10:23:43.094Z,6.37
2018-03-19T10:26:11.450Z,6.63
2018-03-19T10:28:39.056Z,10.97
2018-03-19T10:31:06.690Z,10.97
2018-03-19T10:33:34.886Z,14.30
2018-03-19T10:36:02.480Z,6.60
2018-03-19T10:38:30.116Z,6.97
2018-03-19T10:40:57.722Z,5.10
2018-03-19T10:43:25.363Z,10.43
2018-03-19T10:45:52.988Z,8.17
2018-03-19T10:48:20.606Z,7.87
2018-03-19T10:50:48.182Z,6.80
2018-03-19T10:53:16.542Z,7.67
2018-03-19T10:55:44.886Z,4.73
2018-03-19T10:58:12.519Z,7.30
2018-03-19T11:00:40.158Z,5.07
2018-03-19T11:03:08.528Z,5.87
2018-03-19T11:05:42.549Z,6.80
2018-03-19T11:08:10.903Z,8.57
2018-03-19T11:10:38.553Z,6.80
2018-03-19T11:13:07.006Z,5.70
2018-03-19T11:15:34.595Z,6.70
2018-03-19T11:18:02.330Z,11.10
2018-03-19T11:20:30.652Z,7.53
2018-03-19T11:22:59.019Z,9.43
2018-03-19T11:25:27.422Z,7.53
2018-03-19T11:27:55.775Z,14.27
2018-03-19T11:30:23.410Z,9.63
2018-03-19T11:32:50.999Z,6.50
2018-03-19T11:35:18.756Z,9.70
2018-03-19T11:37:46.379Z,6.07
2018-03-19T11:40:14.023Z,11.40
2018-03-19T11:42:41.730Z,12.13
2018-03-19T11:45:09.350Z,9.30
2018-03-19T11:47:36.978Z,7.73
2018-03-19T11:50:05.372Z,7.37
2018-03-19T11:52:33.367Z,8.27
2018-03-19T11:55:01.222Z,7.23
2018-03-19T11:57:29.205Z,7.97
2018-03-19T11:59:56.874Z,7.53
2018-03-19T12:02:24.479Z,9.80
2018-03-19T12:04:52.862Z,6.00
2018-03-19T12:07:20.516Z,5.03
2018-03-19T12:09:48.875Z,8.70
2018-03-19T12:12:16.485Z,7.43
2018-03-19T12:14:44.146Z,8.67
2018-03-19T12:17:11.787Z,7.33
2018-03-19T12:19:39.402Z,6.90
2018-03-19T12:22:07.046Z,9.73
2018-03-19T12:24:34.774Z,7.80
2018-03-19T12:27:02.362Z,7.33
2018-03-19T12:29:29.978Z,9.20
2018-03-19T12:31:58.406Z,10.17
2018-03-19T12:34:26.164Z,8.70
2018-03-19T12:36:53.844Z,11.77
2018-03-19T12:39:21.486Z,11.87
2018-03-19T12:41:49.083Z,6.97
2018-03-19T12:44:16.710Z,7.07
2018-03-19T12:46:44.302Z,7.37
2018-03-19T12:49:11.930Z,6.60
2018-03-19T12:51:39.572Z,6.23
2018-03-19T12:54:07.174Z,8.57
2018-03-19T12:56:34.783Z,6.53
2018-03-19T12:59:02.424Z,6.93
2018-03-19T13:01:30.845Z,6.07
2018-03-19T13:03:58.416Z,5.60
2018-03-19T13:06:26.077Z,6.67
2018-03-19T13:08:54.224Z,7.17
2018-03-19T13:11:21.822Z,7.40
2018-03-19T13:13:50.948Z,7.27
2018-03-19T13:16:19.305Z,6.87
2018-03-19T13:18:47.718Z,7.90
2018-03-19T13:21:15.307Z,7.27
2018-03-19T13:23:42.887Z,7.47
2018-03-19T13:26:10.532Z,7.27
2018-03-19T13:28:38.110Z,9.87
2018-03-19T13:31:05.723Z,6.90
2018-03-19T13:33:33.366Z,8.93
2018-03-19T13:36:01.715Z,6.57
2018-03-19T13:38:29.323Z,7.90
2018-03-19T13:40:56.937Z,6.63
2018-03-19T13:43:25.308Z,5.37
2018-03-19T13:45:54.403Z,7.03
2018-03-19T13:48:22.049Z,9.17
2018-03-19T13:50:49.646Z,6.70
2018-03-19T13:53:18.085Z,7.90
2018-03-19T13:55:45.674Z,8.70
2018-03-19T13:58:13.288Z,7.13
2018-03-19T14:00:40.901Z,8.10
2018-03-19T14:03:09.252Z,9.47
2018-03-19T14:05:36.932Z,7.73
2018-03-19T14:08:05.158Z,5.73
2018-03-19T14:10:32.777Z,9.37
2018-03-19T14:13:01.178Z,7.43
2018-03-19T14:15:28.787Z,8.03
2018-03-19T14:17:56.371Z,8.23
2018-03-19T14:20:24.782Z,5.30
2018-03-19T14:22:52.499Z,7.70
2018-03-19T14:25:20.095Z,9.20
2018-03-19T14:27:48.586Z,8.53
2018-03-19T14:30:16.982Z,10.67
2018-03-19T14:32:44.619Z,12.73
2018-03-19T14:35:12.234Z,6.60
2018-03-19T14:37:39.828Z,7.30
2018-03-19T14:40:07.490Z,11.70
2018-03-19T14:42:35.872Z,6.43
2018-03-19T14:45:03.476Z,8.63
2018-03-19T14:47:31.139Z,12.07
2018-03-19T14:49:58.746Z,7.50
2018-03-19T14:52:26.361Z,8.37
2018-03-19T14:54:53.966Z,6.53
2018-03-19T14:57:21.574Z,9.20
2018-03-19T14:59:49.382Z,8.10
2018-03-19T15:02:17.007Z,6.43
2018-03-19T15:04:44.599Z,8.50
2018-03-19T15:07:13.399Z,5.93
2018-03-19T15:09:41.121Z,5.80
2018-03-19T15:12:09.499Z,6.40
2018-03-19T15:14:37.162Z,7.13
2018-03-19T15:17:04.829Z,7.40
2018-03-19T15:19:32.471Z,8.30
2018-03-19T15:22:02.181Z,9.33
2018-03-19T15:24:35.159Z,10.37
2018-03-19T15:27:02.796Z,6.97
2018-03-19T15:29:33.076Z,7.53
2018-03-19T15:32:02.066Z,6.13
2018-03-19T15:34:31.265Z,8.13
2018-03-19T15:36:59.660Z,8.37
2018-03-19T15:39:28.046Z,7.27
2018-03-19T15:41:55.629Z,7.00
2018-03-19T15:44:23.291Z,7.93
2018-03-19T15:46:52.931Z,6.03
2018-03-19T15:49:21.511Z,7.13
2018-03-19T15:51:52.810Z,7.40
2018-03-19T15:54:21.292Z,8.33
2018-03-19T15:56:52.700Z,7.07
2018-03-19T15:59:21.054Z,6.10
2018-03-19T16:01:48.646Z,8.30
2018-03-19T16:04:17.034Z,7.73
2018-03-19T16:06:44.650Z,9.67
2018-03-19T16:09:12.294Z,5.43
2018-03-19T16:11:39.963Z,9.17
2018-03-19T16:14:08.345Z,7.63
2018-03-19T16:16:35.926Z,6.43
2018-03-19T16:19:04.434Z,8.17
2018-03-19T16:21:32.238Z,6.37
2018-03-19T16:23:59.847Z,7.67
2018-03-19T16:26:28.294Z,6.50
2018-03-19T16:28:57.774Z,8.60
2018-03-19T16:31:26.301Z,13.43
2018-03-19T16:33:54.659Z,10.40
2018-03-19T16:36:22.294Z,9.13
2018-03-19T16:38:49.887Z,18.57
2018-03-19T16:41:17.513Z,7.27
2018-03-19T16:43:45.134Z,7.03
2018-03-19T16:46:13.490Z,9.40
2018-03-19T16:48:41.124Z,7.77
2018-03-19T16:51:08.706Z,6.63
2018-03-19T16:53:36.280Z,7.90
2018-03-19T16:56:05.404Z,8.37
2018-03-19T16:58:33.030Z,10.93
2018-03-19T17:01:01.401Z,6.03
2018-03-19T17:03:29.076Z,8.10
2018-03-19T17:05:57.448Z,8.23
2018-03-19T17:08:25.653Z,8.03
2018-03-19T17:10:53.292Z,7.47
2018-03-19T17:13:21.702Z,6.70
2018-03-19T17:15:49.297Z,9.03
2018-03-19T17:18:16.903Z,8.87
2018-03-19T17:20:44.612Z,9.53
2018-03-19T17:23:12.209Z,13.97
2018-03-19T17:25:40.562Z,7.73
2018-03-19T17:28:08.184Z,9.67
2018-03-19T17:30:35.882Z,11.30
2018-03-19T17:33:03.463Z,7.97
2018-03-19T17:35:31.818Z,8.13
2018-03-19T17:37:59.479Z,9.53
2018-03-19T17:40:27.080Z,8.10
2018-03-19T17:42:54.684Z,9.57
2018-03-19T17:45:23.109Z,9.70
2018-03-19T17:47:51.538Z,7.83
2018-03-19T17:50:19.778Z,8.67
2018-03-19T17:52:47.437Z,7.80
2018-03-19T17:55:15.043Z,9.27
2018-03-19T17:57:43.244Z,8.17
2018-03-19T18:00:11.687Z,11.27
2018-03-19T18:02:39.311Z,14.17
2018-03-19T18:05:06.922Z,12.30
2018-03-19T18:07:36.063Z,12.33
2018-03-19T18:10:03.678Z,12.17
2018-03-19T18:12:31.263Z,14.27
2018-03-19T18:14:59.667Z,13.93
2018-03-19T18:17:27.577Z,12.13
2018-03-19T18:19:55.174Z,9.73
2018-03-19T18:22:23.584Z,11.90
2018-03-19T18:24:51.998Z,11.20
2018-03-19T18:27:19.608Z,9.50
2018-03-19T18:29:47.255Z,10.27
2018-03-19T18:32:15.606Z,12.17
2018-03-19T18:34:43.206Z,11.23
2018-03-19T18:37:10.979Z,8.80
2018-03-19T18:39:38.610Z,12.27
2018-03-19T18:42:06.974Z,10.53
2018-03-19T18:44:34.609Z,10.90
2018-03-19T18:47:02.212Z,8.53
2018-03-19T18:49:29.820Z,9.90
2018-03-19T18:51:57.486Z,8.37
2018-03-19T18:54:25.103Z,10.80
2018-03-19T18:56:52.691Z,9.20
2018-03-19T18:59:20.347Z,15.03
2018-03-19T19:01:47.986Z,10.00
2018-03-19T19:04:15.592Z,12.37
2018-03-19T19:06:43.253Z,10.07
2018-03-19T19:09:10.867Z,12.83
2018-03-19T19:11:39.124Z,10.37
2018-03-19T19:14:07.536Z,10.50
2018-03-19T19:16:35.120Z,9.57
2018-03-19T19:19:02.752Z,10.80
2018-03-19T19:21:30.437Z,9.77
2018-03-19T19:23:58.024Z,9.77
2018-03-19T19:26:25.622Z,12.57
2018-03-19T19:28:53.258Z,11.27
2018-03-19T19:31:21.609Z,10.07
2018-03-19T19:33:49.266Z,12.63
2018-03-19T19:36:16.906Z,14.63
2018-03-19T19:38:44.533Z,13.77
2018-03-19T19:41:12.123Z,10.47
2018-03-19T19:43:39.791Z,9.87
2018-03-19T19:46:08.483Z,10.00
2018-03-19T19:48:36.107Z,14.03
2018-03-19T19:51:03.833Z,11.33
2018-03-19T19:53:32.199Z,10.93
2018-03-19T19:55:59.811Z,16.50
2018-03-19T19:58:27.490Z,12.53
2018-03-19T20:00:55.126Z,16.17
2018-03-19T20:03:22.756Z,12.87
2018-03-19T20:05:51.202Z,14.13
2018-03-19T20:08:18.954Z,13.93
2018-03-19T20:10:46.561Z,15.43
2018-03-19T20:13:15.015Z,20.13
2018-03-19T20:15:42.739Z,14.80
2018-03-19T20:18:10.344Z,16.90
2018-03-19T20:20:38.007Z,15.43
2018-03-19T20:23:05.679Z,16.77
2018-03-19T20:25:34.070Z,18.73
2018-03-19T20:28:02.462Z,13.47
2018-03-19T20:30:30.167Z,13.17
2018-03-19T20:32:57.777Z,12.83
2018-03-19T20:35:25.377Z,15.40
2018-03-19T20:37:53.851Z,22.87
2018-03-19T20:40:21.518Z,13.73
2018-03-19T20:42:49.288Z,18.60
2018-03-19T20:45:16.862Z,15.13
2018-03-19T20:47:44.509Z,15.27
2018-03-19T20:50:12.763Z,18.10
2018-03-19T20:52:40.419Z,19.83
2018-03-19T20:55:08.070Z,16.30
2018-03-19T20:57:35.687Z,20.83
2018-03-19T21:00:04.088Z,20.67
2018-03-19T21:02:32.486Z,18.00
2018-03-19T21:05:00.088Z,19.03
2018-03-19T21:07:27.745Z,24.37
2018-03-19T21:09:55.352Z,22.33
2018-03-19T21:12:23.152Z,24.70
2018-03-19T21:14:50.782Z,25.37
2018-03-19T21:17:18.413Z,22.40
2018-03-19T21:19:47.535Z,19.77
2018-03-19T21:22:16.372Z,25.27
2018-03-19T21:24:46.181Z,18.20
2018-03-19T21:27:14.258Z,22.20
2018-03-19T21:29:42.314Z,20.27
2018-03-19T21:32:10.143Z,22.93
2018-03-19T21:34:38.060Z,21.27
2018-03-19T21:37:05.817Z,20.33
2018-03-19T21:39:34.265Z,23.07
2018-03-19T21:42:02.014Z,15.00
2018-03-19T21:44:29.734Z,17.37
2018-03-19T21:46:57.405Z,20.23
2018-03-19T21:49:25.827Z,18.47
2018-03-19T21:51:53.691Z,20.97
2018-03-19T21:54:21.686Z,18.80
2018-03-19T21:56:49.509Z,20.70
2018-03-19T21:59:18.826Z,21.27
2018-03-19T22:01:46.630Z,23.73
2018-03-19T22:04:14.245Z,19.97
2018-03-19T22:06:41.836Z,19.23
2018-03-19T22:09:09.726Z,20.50
2018-03-19T22:11:37.330Z,19.63
2018-03-19T22:14:05.395Z,22.20
2018-03-19T22:16:33.792Z,17.80
2018-03-19T22:19:01.396Z,18.67
2018-03-19T22:21:29.038Z,17.37
2018-03-19T22:23:56.746Z,19.83
2018-03-19T22:26:25.111Z,18.20
2018-03-19T22:28:53.518Z,20.53
2018-03-19T22:31:21.142Z,19.60
2018-03-19T22:33:48.742Z,15.33
2018-03-19T22:36:16.533Z,15.20
2018-03-19T22:38:44.151Z,15.47
2018-03-19T22:43:46.402Z,16.47
2018-03-19T22:46:14.071Z,16.00
2018-03-19T22:48:41.662Z,20.90
2018-03-19T22:51:09.284Z,15.70
2018-03-19T22:53:36.907Z,15.97
2018-03-19T22:56:04.533Z,17.17
2018-03-19T22:58:32.946Z,17.30
2018-03-19T23:01:00.538Z,18.47
2018-03-19T23:03:28.191Z,15.00
2018-03-19T23:05:55.785Z,17.90
2018-03-19T23:08:24.135Z,15.00
2018-03-19T23:10:51.767Z,14.30
2018-03-19T23:13:19.368Z,15.87
2018-03-19T23:15:46.980Z,17.77
2018-03-19T23:18:15.302Z,18.20
2018-03-19T23:20:42.903Z,14.93
2018-03-19T23:23:10.608Z,15.63
2018-03-19T23:25:38.247Z,17.10
2018-03-19T23:28:06.122Z,16.63
2018-03-19T23:30:33.734Z,19.37
2018-03-19T23:33:02.032Z,13.67
2018-03-19T23:35:30.025Z,17.80
2018-03-19T23:37:57.687Z,16.27
2018-03-19T23:40:25.280Z,21.47
2018-03-19T23:42:54.419Z,18.97
2018-03-19T23:45:22.025Z,17.93
2018-03-19T23:47:49.713Z,19.73
2018-03-19T23:50:18.066Z,22.90
2018-03-19T23:52:45.702Z,19.37
2018-03-19T23:55:13.354Z,18.03
2018-03-19T23:57:41.026Z,14.73
